sensor_id;sensor_type;location;lat;lon;timestamp;P1;durP1;ratioP1;P2;durP2;ratioP2
462;SDS011;218;51.902;9.542;2022-08-30T00:02:08;2.70;;;2.60;;
462;SDS011;218;51.902;9.542;2022-08-30T00:04:37;3.43;;;3.13;;
462;SDS011;218;51.902;9.542;2022-08-30T00:07:16;2.83;;;2.67;;
462;SDS011;218;51.902;9.542;2022-08-30T00:09:43;2.77;;;2.67;;
462;SDS011;218;51.902;9.542;2022-08-30T00:12:19;3.10;;;2.90;;
462;SDS011;218;51.902;9.542;2022-08-30T00:14:48;2.67;;;2.50;;
462;SDS011;218;51.902;9.542;2022-08-30T00:17:20;2.90;;;2.80;;
462;SDS011;218;51.902;9.542;2022-08-30T00:19:50;3.03;;;2.93;;
462;SDS011;218;51.902;9.542;2022-08-30T00:22:17;2.60;;;2.50;;
462;SDS011;218;51.902;9.542;2022-08-30T00:24:47;2.93;;;2.83;;
462;SDS011;218;51.902;9.542;2022-08-30T00:27:15;2.90;;;2.80;;
462;SDS011;218;51.902;9.542;2022-08-30T00:29:42;3.07;;;2.87;;
462;SDS011;218;51.902;9.542;2022-08-30T00:32:10;2.67;;;2.57;;
462;SDS011;218;51.902;9.542;2022-08-30T00:34:39;2.83;;;2.73;;
462;SDS011;218;51.902;9.542;2022-08-30T00:37:06;2.53;;;2.40;;
462;SDS011;218;51.902;9.542;2022-08-30T00:39:35;3.20;;;3.00;;
462;SDS011;218;51.902;9.542;2022-08-30T00:42:14;3.00;;;2.67;;
462;SDS011;218;51.902;9.542;2022-08-30T00:44:43;3.43;;;3.23;;
462;SDS011;218;51.902;9.542;2022-08-30T00:47:11;2.90;;;2.80;;
462;SDS011;218;51.902;9.542;2022-08-30T00:49:40;2.63;;;2.53;;
462;SDS011;218;51.902;9.542;2022-08-30T00:52:13;3.20;;;2.90;;
462;SDS011;218;51.902;9.542;2022-08-30T00:54:42;3.03;;;2.90;;
462;SDS011;218;51.902;9.542;2022-08-30T00:57:13;2.70;;;2.50;;
462;SDS011;218;51.902;9.542;2022-08-30T00:59:43;3.13;;;3.03;;
462;SDS011;218;51.902;9.542;2022-08-30T01:02:12;2.80;;;2.70;;
462;SDS011;218;51.902;9.542;2022-08-30T01:04:42;6.70;;;2.83;;
462;SDS011;218;51.902;9.542;2022-08-30T01:07:10;2.80;;;2.70;;
462;SDS011;218;51.902;9.542;2022-08-30T01:09:38;2.90;;;2.80;;
462;SDS011;218;51.902;9.542;2022-08-30T01:12:05;3.03;;;2.93;;
462;SDS011;218;51.902;9.542;2022-08-30T01:14:34;2.73;;;2.63;;
462;SDS011;218;51.902;9.542;2022-08-30T01:17:02;2.70;;;2.60;;
462;SDS011;218;51.902;9.542;2022-08-30T01:19:33;2.80;;;2.70;;
462;SDS011;218;51.902;9.542;2022-08-30T01:22:07;2.50;;;2.40;;
462;SDS011;218;51.902;9.542;2022-08-30T01:24:37;2.50;;;2.40;;
462;SDS011;218;51.902;9.542;2022-08-30T01:27:05;3.03;;;2.93;;
462;SDS011;218;51.902;9.542;2022-08-30T01:29:32;2.77;;;2.67;;
462;SDS011;218;51.902;9.542;2022-08-30T01:32:00;2.50;;;2.40;;
462;SDS011;218;51.902;9.542;2022-08-30T01:34:27;3.10;;;2.80;;
462;SDS011;218;51.902;9.542;2022-08-30T01:36:54;2.90;;;2.80;;
462;SDS011;218;51.902;9.542;2022-08-30T01:39:21;2.60;;;2.50;;
462;SDS011;218;51.902;9.542;2022-08-30T01:41:50;2.80;;;2.70;;
462;SDS011;218;51.902;9.542;2022-08-30T01:44:17;3.20;;;3.00;;
462;SDS011;218;51.902;9.542;2022-08-30T01:46:46;2.90;;;2.80;;
462;SDS011;218;51.902;9.542;2022-08-30T01:49:15;3.57;;;3.37;;
462;SDS011;218;51.902;9.542;2022-08-30T01:51:43;3.27;;;2.97;;
462;SDS011;218;51.902;9.542;2022-08-30T01:54:10;2.90;;;2.80;;
462;SDS011;218;51.902;9.542;2022-08-30T01:56:38;2.87;;;2.77;;
462;SDS011;218;51.902;9.542;2022-08-30T01:59:07;2.63;;;2.53;;
462;SDS011;218;51.902;9.542;2022-08-30T02:01:35;2.77;;;2.67;;
462;SDS011;218;51.902;9.542;2022-08-30T02:04:04;3.57;;;3.27;;
462;SDS011;218;51.902;9.542;2022-08-30T02:06:32;3.07;;;2.90;;
462;SDS011;218;51.902;9.542;2022-08-30T02:08:59;2.83;;;2.63;;
462;SDS011;218;51.902;9.542;2022-08-30T02:11:27;3.10;;;3.00;;
462;SDS011;218;51.902;9.542;2022-08-30T02:14:10;2.80;;;2.70;;
462;SDS011;218;51.902;9.542;2022-08-30T02:16:37;3.00;;;2.80;;
462;SDS011;218;51.902;9.542;2022-08-30T02:19:08;3.30;;;3.10;;
462;SDS011;218;51.902;9.542;2022-08-30T02:21:36;2.73;;;2.60;;
462;SDS011;218;51.902;9.542;2022-08-30T02:24:04;2.60;;;2.50;;
462;SDS011;218;51.902;9.542;2022-08-30T02:26:31;2.73;;;2.60;;
462;SDS011;218;51.902;9.542;2022-08-30T02:29:00;2.90;;;2.70;;
462;SDS011;218;51.902;9.542;2022-08-30T02:31:30;2.73;;;2.60;;
462;SDS011;218;51.902;9.542;2022-08-30T02:33:58;3.17;;;3.00;;
462;SDS011;218;51.902;9.542;2022-08-30T02:36:25;2.93;;;2.83;;
462;SDS011;218;51.902;9.542;2022-08-30T02:38:52;3.10;;;2.90;;
462;SDS011;218;51.902;9.542;2022-08-30T02:41:20;3.00;;;2.90;;
462;SDS011;218;51.902;9.542;2022-08-30T02:43:48;3.27;;;3.10;;
462;SDS011;218;51.902;9.542;2022-08-30T02:46:15;2.60;;;2.50;;
462;SDS011;218;51.902;9.542;2022-08-30T02:48:44;3.40;;;3.23;;
462;SDS011;218;51.902;9.542;2022-08-30T02:51:12;3.33;;;3.10;;
462;SDS011;218;51.902;9.542;2022-08-30T02:53:40;3.00;;;2.90;;
462;SDS011;218;51.902;9.542;2022-08-30T02:56:07;2.67;;;2.57;;
462;SDS011;218;51.902;9.542;2022-08-30T02:58:35;2.80;;;2.70;;
462;SDS011;218;51.902;9.542;2022-08-30T03:01:03;2.87;;;2.77;;
462;SDS011;218;51.902;9.542;2022-08-30T03:03:30;3.20;;;3.00;;
462;SDS011;218;51.902;9.542;2022-08-30T03:05:59;3.10;;;3.00;;
462;SDS011;218;51.902;9.542;2022-08-30T03:08:27;3.30;;;3.20;;
462;SDS011;218;51.902;9.542;2022-08-30T03:10:54;3.37;;;3.27;;
462;SDS011;218;51.902;9.542;2022-08-30T03:13:22;3.00;;;2.90;;
462;SDS011;218;51.902;9.542;2022-08-30T03:15:49;3.57;;;3.30;;
462;SDS011;218;51.902;9.542;2022-08-30T03:18:17;4.37;;;2.93;;
462;SDS011;218;51.902;9.542;2022-08-30T03:20:46;3.07;;;2.97;;
462;SDS011;218;51.902;9.542;2022-08-30T03:23:15;3.00;;;2.90;;
462;SDS011;218;51.902;9.542;2022-08-30T03:25:43;3.10;;;2.90;;
462;SDS011;218;51.902;9.542;2022-08-30T03:28:10;3.40;;;3.30;;
462;SDS011;218;51.902;9.542;2022-08-30T03:30:38;3.17;;;2.83;;
462;SDS011;218;51.902;9.542;2022-08-30T03:33:05;3.60;;;3.33;;
462;SDS011;218;51.902;9.542;2022-08-30T03:35:33;3.93;;;3.63;;
462;SDS011;218;51.902;9.542;2022-08-30T03:38:00;3.43;;;3.33;;
462;SDS011;218;51.902;9.542;2022-08-30T03:40:31;4.37;;;3.97;;
462;SDS011;218;51.902;9.542;2022-08-30T03:42:59;3.30;;;3.10;;
462;SDS011;218;51.902;9.542;2022-08-30T03:45:27;3.40;;;3.20;;
462;SDS011;218;51.902;9.542;2022-08-30T03:47:54;3.20;;;3.10;;
462;SDS011;218;51.902;9.542;2022-08-30T03:50:21;3.57;;;3.37;;
462;SDS011;218;51.902;9.542;2022-08-30T03:52:49;3.40;;;3.30;;
462;SDS011;218;51.902;9.542;2022-08-30T03:55:16;3.70;;;3.50;;
462;SDS011;218;51.902;9.542;2022-08-30T03:57:44;4.27;;;3.97;;
462;SDS011;218;51.902;9.542;2022-08-30T04:00:13;4.20;;;4.00;;
462;SDS011;218;51.902;9.542;2022-08-30T04:02:40;4.33;;;4.13;;
462;SDS011;218;51.902;9.542;2022-08-30T04:05:08;3.90;;;3.70;;
462;SDS011;218;51.902;9.542;2022-08-30T04:07:36;3.47;;;3.30;;
462;SDS011;218;51.902;9.542;2022-08-30T04:10:03;3.83;;;3.63;;
462;SDS011;218;51.902;9.542;2022-08-30T04:12:32;3.70;;;3.60;;
462;SDS011;218;51.902;9.542;2022-08-30T04:15:01;3.47;;;3.20;;
462;SDS011;218;51.902;9.542;2022-08-30T04:17:28;3.53;;;3.33;;
462;SDS011;218;51.902;9.542;2022-08-30T04:19:56;3.97;;;3.77;;
462;SDS011;218;51.902;9.542;2022-08-30T04:22:23;3.80;;;3.60;;
462;SDS011;218;51.902;9.542;2022-08-30T04:24:51;3.90;;;3.70;;
462;SDS011;218;51.902;9.542;2022-08-30T04:27:19;3.90;;;3.70;;
462;SDS011;218;51.902;9.542;2022-08-30T04:29:46;3.83;;;3.63;;
462;SDS011;218;51.902;9.542;2022-08-30T04:32:15;3.43;;;3.30;;
462;SDS011;218;51.902;9.542;2022-08-30T04:34:43;3.60;;;3.40;;
462;SDS011;218;51.902;9.542;2022-08-30T04:37:10;3.60;;;3.40;;
462;SDS011;218;51.902;9.542;2022-08-30T04:39:37;4.07;;;3.87;;
462;SDS011;218;51.902;9.542;2022-08-30T04:42:05;4.50;;;4.20;;
462;SDS011;218;51.902;9.542;2022-08-30T04:44:32;3.70;;;3.50;;
462;SDS011;218;51.902;9.542;2022-08-30T04:46:59;3.70;;;3.50;;
462;SDS011;218;51.902;9.542;2022-08-30T04:49:28;4.10;;;3.90;;
462;SDS011;218;51.902;9.542;2022-08-30T04:51:57;4.10;;;3.90;;
462;SDS011;218;51.902;9.542;2022-08-30T04:54:24;3.63;;;3.43;;
462;SDS011;218;51.902;9.542;2022-08-30T04:56:51;4.07;;;3.87;;
462;SDS011;218;51.902;9.542;2022-08-30T04:59:18;4.00;;;3.80;;
462;SDS011;218;51.902;9.542;2022-08-30T05:01:46;4.67;;;4.47;;
462;SDS011;218;51.902;9.542;2022-08-30T05:04:13;4.00;;;3.80;;
462;SDS011;218;51.902;9.542;2022-08-30T05:06:43;4.70;;;4.50;;
462;SDS011;218;51.902;9.542;2022-08-30T05:09:10;4.10;;;3.90;;
462;SDS011;218;51.902;9.542;2022-08-30T05:11:37;4.53;;;3.83;;
462;SDS011;218;51.902;9.542;2022-08-30T05:14:07;4.63;;;4.23;;
462;SDS011;218;51.902;9.542;2022-08-30T05:16:34;4.23;;;4.03;;
462;SDS011;218;51.902;9.542;2022-08-30T05:19:02;4.53;;;4.13;;
462;SDS011;218;51.902;9.542;2022-08-30T05:21:29;6.03;;;4.37;;
462;SDS011;218;51.902;9.542;2022-08-30T05:23:58;4.60;;;4.37;;
462;SDS011;218;51.902;9.542;2022-08-30T05:26:27;4.77;;;4.50;;
462;SDS011;218;51.902;9.542;2022-08-30T05:28:54;4.40;;;4.20;;
462;SDS011;218;51.902;9.542;2022-08-30T05:31:22;5.07;;;4.77;;
462;SDS011;218;51.902;9.542;2022-08-30T05:33:50;4.60;;;4.30;;
462;SDS011;218;51.902;9.542;2022-08-30T05:36:18;5.33;;;5.03;;
462;SDS011;218;51.902;9.542;2022-08-30T05:38:46;5.57;;;5.17;;
462;SDS011;218;51.902;9.542;2022-08-30T05:41:17;5.00;;;4.70;;
462;SDS011;218;51.902;9.542;2022-08-30T05:43:44;5.17;;;4.80;;
462;SDS011;218;51.902;9.542;2022-08-30T05:46:12;5.40;;;5.10;;
462;SDS011;218;51.902;9.542;2022-08-30T05:48:43;5.90;;;5.50;;
462;SDS011;218;51.902;9.542;2022-08-30T05:51:11;6.20;;;5.70;;
462;SDS011;218;51.902;9.542;2022-08-30T05:53:39;6.07;;;5.57;;
462;SDS011;218;51.902;9.542;2022-08-30T05:56:08;6.30;;;5.77;;
462;SDS011;218;51.902;9.542;2022-08-30T05:58:38;6.50;;;6.07;;
462;SDS011;218;51.902;9.542;2022-08-30T06:01:05;5.83;;;5.43;;
462;SDS011;218;51.902;9.542;2022-08-30T06:03:33;7.20;;;6.70;;
462;SDS011;218;51.902;9.542;2022-08-30T06:06:00;6.90;;;6.40;;
462;SDS011;218;51.902;9.542;2022-08-30T06:08:27;7.60;;;7.00;;
462;SDS011;218;51.902;9.542;2022-08-30T06:10:55;8.50;;;7.80;;
462;SDS011;218;51.902;9.542;2022-08-30T06:13:22;7.63;;;7.13;;
462;SDS011;218;51.902;9.542;2022-08-30T06:15:50;7.93;;;7.33;;
462;SDS011;218;51.902;9.542;2022-08-30T06:18:17;7.13;;;6.63;;
462;SDS011;218;51.902;9.542;2022-08-30T06:20:44;7.50;;;7.03;;
462;SDS011;218;51.902;9.542;2022-08-30T06:23:13;8.13;;;7.53;;
462;SDS011;218;51.902;9.542;2022-08-30T06:25:41;8.40;;;7.80;;
462;SDS011;218;51.902;9.542;2022-08-30T06:28:09;8.00;;;7.40;;
462;SDS011;218;51.902;9.542;2022-08-30T06:30:38;8.67;;;7.87;;
462;SDS011;218;51.902;9.542;2022-08-30T06:33:07;7.40;;;6.80;;
462;SDS011;218;51.902;9.542;2022-08-30T06:35:34;7.50;;;6.90;;
462;SDS011;218;51.902;9.542;2022-08-30T06:38:01;7.57;;;7.07;;
462;SDS011;218;51.902;9.542;2022-08-30T06:40:29;8.03;;;7.43;;
462;SDS011;218;51.902;9.542;2022-08-30T06:42:56;8.93;;;8.27;;
462;SDS011;218;51.902;9.542;2022-08-30T06:45:23;9.03;;;8.43;;
462;SDS011;218;51.902;9.542;2022-08-30T06:47:49;7.93;;;7.37;;
462;SDS011;218;51.902;9.542;2022-08-30T06:50:18;8.63;;;7.83;;
462;SDS011;218;51.902;9.542;2022-08-30T06:52:45;8.80;;;8.10;;
462;SDS011;218;51.902;9.542;2022-08-30T06:55:13;10.27;;;9.30;;
462;SDS011;218;51.902;9.542;2022-08-30T06:57:40;9.53;;;8.53;;
462;SDS011;218;51.902;9.542;2022-08-30T07:00:08;9.10;;;8.40;;
462;SDS011;218;51.902;9.542;2022-08-30T07:02:39;9.47;;;8.67;;
462;SDS011;218;51.902;9.542;2022-08-30T07:05:07;8.77;;;7.97;;
462;SDS011;218;51.902;9.542;2022-08-30T07:07:38;9.00;;;8.27;;
462;SDS011;218;51.902;9.542;2022-08-30T07:10:06;9.67;;;8.77;;
462;SDS011;218;51.902;9.542;2022-08-30T07:12:34;8.17;;;7.00;;
462;SDS011;218;51.902;9.542;2022-08-30T07:15:02;7.83;;;7.20;;
462;SDS011;218;51.902;9.542;2022-08-30T07:17:30;7.37;;;6.77;;
462;SDS011;218;51.902;9.542;2022-08-30T07:20:15;7.40;;;6.70;;
462;SDS011;218;51.902;9.542;2022-08-30T07:22:44;7.10;;;6.50;;
462;SDS011;218;51.902;9.542;2022-08-30T07:25:11;8.07;;;7.27;;
462;SDS011;218;51.902;9.542;2022-08-30T07:27:39;7.90;;;7.30;;
462;SDS011;218;51.902;9.542;2022-08-30T07:30:07;8.03;;;7.33;;
462;SDS011;218;51.902;9.542;2022-08-30T07:32:35;8.07;;;7.40;;
462;SDS011;218;51.902;9.542;2022-08-30T07:35:02;8.97;;;7.73;;
462;SDS011;218;51.902;9.542;2022-08-30T07:37:30;7.53;;;6.93;;
462;SDS011;218;51.902;9.542;2022-08-30T07:39:58;7.87;;;7.03;;
462;SDS011;218;51.902;9.542;2022-08-30T07:42:25;7.47;;;6.87;;
462;SDS011;218;51.902;9.542;2022-08-30T07:44:52;9.80;;;8.90;;
462;SDS011;218;51.902;9.542;2022-08-30T07:47:19;10.20;;;9.20;;
462;SDS011;218;51.902;9.542;2022-08-30T07:49:47;11.60;;;10.70;;
462;SDS011;218;51.902;9.542;2022-08-30T07:52:14;12.03;;;11.03;;
462;SDS011;218;51.902;9.542;2022-08-30T07:54:41;15.37;;;14.07;;
462;SDS011;218;51.902;9.542;2022-08-30T07:57:10;12.90;;;11.70;;
462;SDS011;218;51.902;9.542;2022-08-30T07:59:37;13.80;;;12.50;;
462;SDS011;218;51.902;9.542;2022-08-30T08:02:04;14.70;;;13.37;;
462;SDS011;218;51.902;9.542;2022-08-30T08:04:31;13.37;;;12.27;;
462;SDS011;218;51.902;9.542;2022-08-30T08:06:59;13.47;;;12.27;;
462;SDS011;218;51.902;9.542;2022-08-30T08:09:26;13.27;;;12.07;;
462;SDS011;218;51.902;9.542;2022-08-30T08:11:53;13.50;;;12.37;;
462;SDS011;218;51.902;9.542;2022-08-30T08:14:22;12.73;;;11.53;;
462;SDS011;218;51.902;9.542;2022-08-30T08:16:49;13.40;;;12.10;;
462;SDS011;218;51.902;9.542;2022-08-30T08:19:16;12.50;;;11.40;;
462;SDS011;218;51.902;9.542;2022-08-30T08:21:43;13.23;;;12.13;;
462;SDS011;218;51.902;9.542;2022-08-30T08:24:11;11.67;;;10.67;;
462;SDS011;218;51.902;9.542;2022-08-30T08:26:39;11.50;;;10.60;;
462;SDS011;218;51.902;9.542;2022-08-30T08:29:06;10.60;;;9.70;;
462;SDS011;218;51.902;9.542;2022-08-30T08:31:36;12.00;;;11.03;;
462;SDS011;218;51.902;9.542;2022-08-30T08:34:03;10.73;;;9.93;;
462;SDS011;218;51.902;9.542;2022-08-30T08:36:30;9.83;;;9.10;;
462;SDS011;218;51.902;9.542;2022-08-30T08:38:58;9.73;;;8.93;;
462;SDS011;218;51.902;9.542;2022-08-30T08:41:30;11.27;;;10.33;;
462;SDS011;218;51.902;9.542;2022-08-30T08:44:11;9.73;;;8.93;;
462;SDS011;218;51.902;9.542;2022-08-30T08:46:46;10.40;;;9.50;;
462;SDS011;218;51.902;9.542;2022-08-30T08:49:20;9.17;;;8.47;;
462;SDS011;218;51.902;9.542;2022-08-30T08:51:47;9.00;;;8.30;;
462;SDS011;218;51.902;9.542;2022-08-30T08:54:32;8.63;;;7.93;;
462;SDS011;218;51.902;9.542;2022-08-30T08:57:04;7.43;;;6.83;;
462;SDS011;218;51.902;9.542;2022-08-30T08:59:31;7.47;;;6.97;;
462;SDS011;218;51.902;9.542;2022-08-30T09:02:00;6.30;;;5.90;;
462;SDS011;218;51.902;9.542;2022-08-30T09:04:34;6.97;;;6.33;;
462;SDS011;218;51.902;9.542;2022-08-30T09:07:04;6.77;;;6.27;;
462;SDS011;218;51.902;9.542;2022-08-30T09:09:35;7.40;;;6.80;;
462;SDS011;218;51.902;9.542;2022-08-30T09:12:05;7.40;;;6.90;;
462;SDS011;218;51.902;9.542;2022-08-30T09:14:36;7.53;;;7.03;;
462;SDS011;218;51.902;9.542;2022-08-30T09:17:08;9.37;;;8.00;;
462;SDS011;218;51.902;9.542;2022-08-30T09:19:38;8.13;;;7.30;;
462;SDS011;218;51.902;9.542;2022-08-30T09:22:14;7.47;;;6.80;;
462;SDS011;218;51.902;9.542;2022-08-30T09:24:48;6.73;;;6.30;;
462;SDS011;218;51.902;9.542;2022-08-30T09:27:21;7.60;;;7.00;;
462;SDS011;218;51.902;9.542;2022-08-30T09:29:52;6.30;;;5.80;;
462;SDS011;218;51.902;9.542;2022-08-30T09:32:33;7.03;;;6.53;;
462;SDS011;218;51.902;9.542;2022-08-30T09:35:04;7.17;;;6.67;;
462;SDS011;218;51.902;9.542;2022-08-30T09:37:36;7.50;;;6.90;;
462;SDS011;218;51.902;9.542;2022-08-30T09:40:13;7.03;;;6.53;;
462;SDS011;218;51.902;9.542;2022-08-30T09:42:57;6.60;;;6.10;;
462;SDS011;218;51.902;9.542;2022-08-30T09:45:28;6.10;;;5.70;;
462;SDS011;218;51.902;9.542;2022-08-30T09:47:59;6.40;;;6.00;;
462;SDS011;218;51.902;9.542;2022-08-30T09:50:26;7.20;;;6.60;;
462;SDS011;218;51.902;9.542;2022-08-30T09:53:02;6.70;;;6.30;;
462;SDS011;218;51.902;9.542;2022-08-30T09:55:46;6.70;;;6.23;;
462;SDS011;218;51.902;9.542;2022-08-30T09:58:21;6.90;;;6.43;;
462;SDS011;218;51.902;9.542;2022-08-30T10:01:00;6.03;;;5.63;;
462;SDS011;218;51.902;9.542;2022-08-30T10:03:35;6.73;;;6.23;;
462;SDS011;218;51.902;9.542;2022-08-30T10:06:09;5.70;;;5.30;;
462;SDS011;218;51.902;9.542;2022-08-30T10:08:47;6.20;;;5.80;;
462;SDS011;218;51.902;9.542;2022-08-30T10:11:23;6.23;;;5.83;;
462;SDS011;218;51.902;9.542;2022-08-30T10:14:10;6.43;;;6.00;;
462;SDS011;218;51.902;9.542;2022-08-30T10:16:57;5.57;;;5.17;;
462;SDS011;218;51.902;9.542;2022-08-30T10:19:35;6.63;;;6.13;;
462;SDS011;218;51.902;9.542;2022-08-30T10:22:14;5.70;;;5.40;;
462;SDS011;218;51.902;9.542;2022-08-30T10:24:50;5.60;;;5.30;;
462;SDS011;218;51.902;9.542;2022-08-30T10:27:22;6.17;;;5.77;;
462;SDS011;218;51.902;9.542;2022-08-30T10:29:55;5.20;;;4.90;;
462;SDS011;218;51.902;9.542;2022-08-30T10:32:27;6.53;;;6.03;;
462;SDS011;218;51.902;9.542;2022-08-30T10:35:02;6.20;;;5.70;;
462;SDS011;218;51.902;9.542;2022-08-30T10:37:34;5.00;;;4.70;;
462;SDS011;218;51.902;9.542;2022-08-30T10:40:08;5.40;;;5.10;;
462;SDS011;218;51.902;9.542;2022-08-30T10:42:57;6.83;;;6.40;;
462;SDS011;218;51.902;9.542;2022-08-30T10:45:29;6.27;;;5.87;;
462;SDS011;218;51.902;9.542;2022-08-30T10:48:02;5.20;;;4.90;;
462;SDS011;218;51.902;9.542;2022-08-30T10:50:39;7.00;;;6.50;;
462;SDS011;218;51.902;9.542;2022-08-30T10:53:10;8.30;;;7.63;;
462;SDS011;218;51.902;9.542;2022-08-30T10:55:42;7.57;;;6.97;;
462;SDS011;218;51.902;9.542;2022-08-30T10:58:13;8.30;;;7.60;;
462;SDS011;218;51.902;9.542;2022-08-30T11:00:44;9.77;;;8.90;;
462;SDS011;218;51.902;9.542;2022-08-30T11:03:40;11.13;;;10.20;;
462;SDS011;218;51.902;9.542;2022-08-30T11:06:31;13.33;;;12.23;;
462;SDS011;218;51.902;9.542;2022-08-30T11:09:07;15.00;;;13.60;;
462;SDS011;218;51.902;9.542;2022-08-30T11:12:16;14.77;;;13.47;;
462;SDS011;218;51.902;9.542;2022-08-30T11:14:51;15.93;;;14.43;;
462;SDS011;218;51.902;9.542;2022-08-30T11:17:21;16.10;;;14.67;;
462;SDS011;218;51.902;9.542;2022-08-30T11:19:51;16.50;;;15.00;;
462;SDS011;218;51.902;9.542;2022-08-30T11:22:24;16.73;;;15.23;;
462;SDS011;218;51.902;9.542;2022-08-30T11:27:42;17.93;;;16.33;;
462;SDS011;218;51.902;9.542;2022-08-30T11:33:28;19.27;;;17.27;;
462;SDS011;218;51.902;9.542;2022-08-30T11:36:05;17.57;;;16.03;;
462;SDS011;218;51.902;9.542;2022-08-30T11:41:31;15.97;;;14.47;;
462;SDS011;218;51.902;9.542;2022-08-30T11:46:57;17.73;;;16.13;;
462;SDS011;218;51.902;9.542;2022-08-30T11:52:33;15.47;;;14.07;;
462;SDS011;218;51.902;9.542;2022-08-30T11:55:21;15.00;;;13.80;;
462;SDS011;218;51.902;9.542;2022-08-30T11:58:08;17.23;;;15.83;;
462;SDS011;218;51.902;9.542;2022-08-30T12:00:45;14.60;;;13.30;;
462;SDS011;218;51.902;9.542;2022-08-30T12:03:26;16.17;;;14.77;;
462;SDS011;218;51.902;9.542;2022-08-30T12:06:02;16.30;;;14.97;;
462;SDS011;218;51.902;9.542;2022-08-30T12:08:49;19.67;;;17.97;;
462;SDS011;218;51.902;9.542;2022-08-30T12:17:29;17.50;;;15.90;;
462;SDS011;218;51.902;9.542;2022-08-30T12:20:22;17.80;;;16.40;;
462;SDS011;218;51.902;9.542;2022-08-30T12:22:53;17.93;;;16.43;;
462;SDS011;218;51.902;9.542;2022-08-30T12:25:27;18.13;;;16.53;;
462;SDS011;218;51.902;9.542;2022-08-30T12:28:09;15.13;;;13.87;;
462;SDS011;218;51.902;9.542;2022-08-30T12:30:46;16.77;;;15.40;;
462;SDS011;218;51.902;9.542;2022-08-30T12:33:22;16.40;;;15.10;;
462;SDS011;218;51.902;9.542;2022-08-30T12:35:51;16.80;;;15.30;;
462;SDS011;218;51.902;9.542;2022-08-30T12:38:22;15.43;;;14.17;;
462;SDS011;218;51.902;9.542;2022-08-30T12:40:51;15.00;;;13.80;;
462;SDS011;218;51.902;9.542;2022-08-30T12:43:27;15.73;;;14.17;;
462;SDS011;218;51.902;9.542;2022-08-30T12:45:59;14.80;;;13.30;;
462;SDS011;218;51.902;9.542;2022-08-30T12:48:31;15.03;;;13.70;;
462;SDS011;218;51.902;9.542;2022-08-30T12:51:00;14.30;;;13.20;;
462;SDS011;218;51.902;9.542;2022-08-30T12:53:28;14.27;;;12.87;;
462;SDS011;218;51.902;9.542;2022-08-30T12:55:58;14.50;;;13.10;;
462;SDS011;218;51.902;9.542;2022-08-30T12:58:34;14.73;;;13.30;;
462;SDS011;218;51.902;9.542;2022-08-30T13:03:56;13.20;;;12.10;;
462;SDS011;218;51.902;9.542;2022-08-30T13:06:40;13.07;;;12.07;;
462;SDS011;218;51.902;9.542;2022-08-30T13:09:22;13.80;;;12.53;;
462;SDS011;218;51.902;9.542;2022-08-30T13:11:52;13.97;;;12.77;;
462;SDS011;218;51.902;9.542;2022-08-30T13:14:27;13.80;;;12.70;;
462;SDS011;218;51.902;9.542;2022-08-30T13:17:19;13.43;;;12.33;;
462;SDS011;218;51.902;9.542;2022-08-30T13:19:55;12.10;;;11.10;;
462;SDS011;218;51.902;9.542;2022-08-30T13:22:29;10.90;;;10.00;;
462;SDS011;218;51.902;9.542;2022-08-30T13:24:58;11.47;;;10.47;;
462;SDS011;218;51.902;9.542;2022-08-30T13:27:25;11.30;;;10.30;;
462;SDS011;218;51.902;9.542;2022-08-30T13:29:54;10.30;;;9.40;;
462;SDS011;218;51.902;9.542;2022-08-30T13:32:23;10.43;;;9.63;;
462;SDS011;218;51.902;9.542;2022-08-30T13:34:50;9.47;;;8.70;;
462;SDS011;218;51.902;9.542;2022-08-30T13:37:18;10.07;;;9.33;;
462;SDS011;218;51.902;9.542;2022-08-30T13:39:48;9.73;;;8.93;;
462;SDS011;218;51.902;9.542;2022-08-30T13:42:15;9.83;;;9.03;;
462;SDS011;218;51.902;9.542;2022-08-30T13:44:42;9.70;;;9.00;;
462;SDS011;218;51.902;9.542;2022-08-30T13:47:09;9.60;;;8.80;;
462;SDS011;218;51.902;9.542;2022-08-30T13:49:48;9.63;;;8.93;;
462;SDS011;218;51.902;9.542;2022-08-30T13:52:21;10.47;;;9.60;;
462;SDS011;218;51.902;9.542;2022-08-30T13:54:56;10.60;;;9.80;;
462;SDS011;218;51.902;9.542;2022-08-30T13:57:40;9.23;;;8.53;;
462;SDS011;218;51.902;9.542;2022-08-30T14:03:28;9.07;;;8.37;;
462;SDS011;218;51.902;9.542;2022-08-30T14:09:14;8.00;;;7.40;;
462;SDS011;218;51.902;9.542;2022-08-30T14:12:02;7.63;;;7.13;;
462;SDS011;218;51.902;9.542;2022-08-30T14:15:16;7.07;;;6.50;;
462;SDS011;218;51.902;9.542;2022-08-30T14:27:58;6.63;;;6.17;;
462;SDS011;218;51.902;9.542;2022-08-30T14:30:47;8.07;;;7.37;;
462;SDS011;218;51.902;9.542;2022-08-30T14:34:17;7.93;;;7.43;;
462;SDS011;218;51.902;9.542;2022-08-30T14:36:47;7.50;;;6.90;;
462;SDS011;218;51.902;9.542;2022-08-30T14:39:21;6.70;;;6.20;;
462;SDS011;218;51.902;9.542;2022-08-30T14:45:24;5.40;;;5.00;;
462;SDS011;218;51.902;9.542;2022-08-30T14:47:58;5.80;;;5.40;;
462;SDS011;218;51.902;9.542;2022-08-30T14:50:43;6.37;;;5.83;;
462;SDS011;218;51.902;9.542;2022-08-30T14:53:24;6.10;;;5.70;;
462;SDS011;218;51.902;9.542;2022-08-30T15:01:59;7.13;;;4.67;;
462;SDS011;218;51.902;9.542;2022-08-30T15:04:45;5.27;;;4.87;;
462;SDS011;218;51.902;9.542;2022-08-30T15:07:42;4.20;;;3.80;;
462;SDS011;218;51.902;9.542;2022-08-30T15:10:26;3.80;;;3.50;;
462;SDS011;218;51.902;9.542;2022-08-30T15:12:56;5.17;;;4.73;;
462;SDS011;218;51.902;9.542;2022-08-30T15:15:42;4.50;;;4.20;;
462;SDS011;218;51.902;9.542;2022-08-30T15:18:14;4.93;;;4.50;;
462;SDS011;218;51.902;9.542;2022-08-30T15:20:50;5.30;;;4.90;;
462;SDS011;218;51.902;9.542;2022-08-30T15:23:32;4.90;;;4.50;;
462;SDS011;218;51.902;9.542;2022-08-30T15:26:16;5.07;;;4.67;;
462;SDS011;218;51.902;9.542;2022-08-30T15:28:43;4.60;;;4.30;;
462;SDS011;218;51.902;9.542;2022-08-30T15:31:14;4.63;;;4.30;;
462;SDS011;218;51.902;9.542;2022-08-30T15:33:43;5.33;;;4.93;;
462;SDS011;218;51.902;9.542;2022-08-30T15:36:11;5.50;;;4.83;;
462;SDS011;218;51.902;9.542;2022-08-30T15:38:38;5.67;;;5.17;;
462;SDS011;218;51.902;9.542;2022-08-30T15:41:07;5.30;;;4.90;;
462;SDS011;218;51.902;9.542;2022-08-30T15:43:36;5.57;;;5.17;;
462;SDS011;218;51.902;9.542;2022-08-30T15:46:14;5.50;;;5.10;;
462;SDS011;218;51.902;9.542;2022-08-30T15:48:43;5.00;;;4.70;;
462;SDS011;218;51.902;9.542;2022-08-30T15:51:11;5.00;;;4.60;;
462;SDS011;218;51.902;9.542;2022-08-30T15:53:39;5.40;;;5.10;;
462;SDS011;218;51.902;9.542;2022-08-30T15:56:06;5.57;;;5.27;;
462;SDS011;218;51.902;9.542;2022-08-30T15:58:35;6.30;;;5.80;;
462;SDS011;218;51.902;9.542;2022-08-30T16:01:03;6.97;;;6.47;;
462;SDS011;218;51.902;9.542;2022-08-30T16:03:33;6.13;;;5.73;;
462;SDS011;218;51.902;9.542;2022-08-30T16:06:01;5.73;;;5.37;;
462;SDS011;218;51.902;9.542;2022-08-30T16:08:31;6.13;;;5.73;;
462;SDS011;218;51.902;9.542;2022-08-30T16:10:58;6.40;;;6.00;;
462;SDS011;218;51.902;9.542;2022-08-30T16:13:25;6.83;;;5.87;;
462;SDS011;218;51.902;9.542;2022-08-30T16:15:53;6.63;;;6.10;;
462;SDS011;218;51.902;9.542;2022-08-30T16:18:20;5.60;;;5.20;;
462;SDS011;218;51.902;9.542;2022-08-30T16:20:49;5.80;;;5.40;;
462;SDS011;218;51.902;9.542;2022-08-30T16:23:27;6.77;;;6.37;;
462;SDS011;218;51.902;9.542;2022-08-30T16:25:54;5.37;;;4.93;;
462;SDS011;218;51.902;9.542;2022-08-30T16:28:21;5.63;;;5.23;;
462;SDS011;218;51.902;9.542;2022-08-30T16:30:48;5.57;;;5.17;;
462;SDS011;218;51.902;9.542;2022-08-30T16:33:15;6.67;;;6.17;;
462;SDS011;218;51.902;9.542;2022-08-30T16:35:43;5.07;;;4.67;;
462;SDS011;218;51.902;9.542;2022-08-30T16:38:12;6.50;;;6.10;;
462;SDS011;218;51.902;9.542;2022-08-30T16:40:39;5.77;;;5.37;;
462;SDS011;218;51.902;9.542;2022-08-30T16:43:06;5.53;;;5.13;;
462;SDS011;218;51.902;9.542;2022-08-30T16:45:33;4.53;;;4.23;;
462;SDS011;218;51.902;9.542;2022-08-30T16:48:02;5.80;;;5.30;;
462;SDS011;218;51.902;9.542;2022-08-30T16:50:29;4.87;;;4.50;;
462;SDS011;218;51.902;9.542;2022-08-30T16:52:56;5.37;;;4.97;;
462;SDS011;218;51.902;9.542;2022-08-30T16:55:25;4.83;;;4.50;;